Time;durP1;ratioP1;P1;durP2;ratioP2;P2;SDS_P1;SDS_P2;PMS_P1;PMS_P2;Temp;Humidity;BMP_temperature;BMP_pressure;BME280_temperature;BME280_humidity;BME280_pressure;Samples;Min_cycle;Max_cycle;Signal;HPM_P1;HPM_P2
2022/04/27 00:01:12;;;;;;;12.80;5.28;;;;;;;;;;4931851;29;20524;-76
2022/04/27 00:03:39;;;;;;;12.68;5.53;;;;;;;;;;4931857;29;20470;-74
2022/04/27 00:06:05;;;;;;;9.70;4.95;;;;;;;;;;4934966;29;20071;-74
2022/04/27 00:08:31;;;;;;;13.25;5.07;;;;;;;;;;4927278;29;20145;-73
2022/04/27 00:10:57;;;;;;;9.40;5.28;;;;;;;;;;4933236;29;20056;-74
2022/04/27 00:13:23;;;;;;;11.38;5.25;;;;;;;;;;4931389;29;20100;-73
2022/04/27 00:15:48;;;;;;;11.10;5.57;;;;;;;;;;4927230;29;20048;-75
2022/04/27 00:18:15;;;;;;;13.27;5.45;;;;;;;;;;4947424;28;20091;-74
2022/04/27 00:20:40;;;;;;;13.60;5.65;;;;;;;;;;4930939;29;20048;-74
2022/04/27 00:23:06;;;;;;;13.13;5.10;;;;;;;;;;4928128;29;20060;-73
2022/04/27 00:25:33;;;;;;;9.82;5.22;;;;;;;;;;4931779;29;20052;-71
2022/04/27 00:27:58;;;;;;;10.43;5.90;;;;;;;;;;4947413;29;20139;-74
2022/04/27 00:30:24;;;;;;;11.63;5.35;;;;;;;;;;4928439;29;20115;-73
2022/04/27 00:32:50;;;;;;;11.63;5.03;;;;;;;;;;4932467;29;20059;-73
2022/04/27 00:35:16;;;;;;;10.77;5.22;;;;;;;;;;4927245;29;20106;-73
2022/04/27 00:37:42;;;;;;;13.95;5.40;;;;;;;;;;4930615;29;20048;-74
2022/04/27 00:40:08;;;;;;;12.18;4.90;;;;;;;;;;4929405;29;20047;-75
2022/04/27 00:42:34;;;;;;;9.77;4.80;;;;;;;;;;4930786;29;20074;-74
2022/04/27 00:45:02;;;;;;;10.88;4.60;;;;;;;;;;4922737;29;20442;-73
2022/04/27 00:47:30;;;;;;;8.82;4.20;;;;;;;;;;4928963;29;20062;-74
2022/04/27 00:49:57;;;;;;;9.57;3.72;;;;;;;;;;4923829;29;20052;-73
2022/04/27 00:52:24;;;;;;;7.60;4.28;;;;;;;;;;4921670;29;20449;-73
2022/04/27 00:54:53;;;;;;;10.25;4.20;;;;;;;;;;4930174;29;20134;-73
2022/04/27 00:57:22;;;;;;;8.73;4.18;;;;;;;;;;4927335;29;20040;-75
2022/04/27 00:59:48;;;;;;;8.02;4.40;;;;;;;;;;4932700;29;20051;-76
2022/04/27 01:02:14;;;;;;;8.27;4.10;;;;;;;;;;4930654;29;20147;-71
2022/04/27 01:04:40;;;;;;;10.23;4.25;;;;;;;;;;4935337;29;20074;-73
2022/04/27 01:07:07;;;;;;;9.60;4.40;;;;;;;;;;4928035;29;20095;-72
2022/04/27 01:09:33;;;;;;;9.60;4.72;;;;;;;;;;4931449;29;20062;-74
2022/04/27 01:12:01;;;;;;;7.65;3.90;;;;;;;;;;4928901;29;20048;-71
2022/04/27 01:14:27;;;;;;;11.27;4.28;;;;;;;;;;4933219;29;20497;-72
2022/04/27 01:16:55;;;;;;;6.45;3.75;;;;;;;;;;4930126;29;20056;-73
2022/04/27 01:19:26;;;;;;;8.30;4.85;;;;;;;;;;4929778;29;20111;-73
2022/04/27 01:21:54;;;;;;;9.80;3.97;;;;;;;;;;4925045;29;20054;-72
2022/04/27 01:24:26;;;;;;;8.00;3.72;;;;;;;;;;4927791;29;20140;-72
2022/04/27 01:26:53;;;;;;;8.48;4.07;;;;;;;;;;4931883;29;20048;-73
2022/04/27 01:29:25;;;;;;;6.53;3.45;;;;;;;;;;4929122;29;20525;-73
2022/04/27 01:31:53;;;;;;;5.68;3.97;;;;;;;;;;4933743;29;20066;-73
2022/04/27 01:34:19;;;;;;;9.20;4.07;;;;;;;;;;4927452;29;20054;-73
2022/04/27 01:36:46;;;;;;;6.85;4.00;;;;;;;;;;4925226;29;20052;-73
2022/04/27 01:39:12;;;;;;;7.25;4.35;;;;;;;;;;4929785;29;20543;-74
2022/04/27 01:41:39;;;;;;;6.93;3.50;;;;;;;;;;4933817;29;20127;-73
2022/04/27 01:44:05;;;;;;;7.50;3.90;;;;;;;;;;4942591;29;20047;-74
2022/04/27 01:46:31;;;;;;;8.60;4.30;;;;;;;;;;4931793;29;20111;-73
2022/04/27 01:48:58;;;;;;;10.85;4.68;;;;;;;;;;4930676;29;20382;-72
2022/04/27 01:54:15;;;;;;;9.40;4.55;;;;;;;;;;4925035;29;20058;-73
2022/04/27 01:56:42;;;;;;;11.48;4.47;;;;;;;;;;4929434;29;20044;-71
2022/04/27 01:59:09;;;;;;;9.23;4.63;;;;;;;;;;4925523;29;20079;-72
2022/04/27 02:01:35;;;;;;;7.75;4.22;;;;;;;;;;4931644;29;20480;-72
2022/04/27 02:04:01;;;;;;;7.35;4.40;;;;;;;;;;4928844;29;20044;-74
2022/04/27 02:06:27;;;;;;;8.93;4.55;;;;;;;;;;4939937;28;20040;-72
2022/04/27 02:08:53;;;;;;;8.10;4.90;;;;;;;;;;4923976;29;20055;-72
2022/04/27 02:11:24;;;;;;;11.98;4.57;;;;;;;;;;4928536;29;20076;-72
2022/04/27 02:13:55;;;;;;;8.57;5.03;;;;;;;;;;4936759;29;20052;-73
2022/04/27 02:16:22;;;;;;;10.88;5.03;;;;;;;;;;4932465;29;20050;-73
2022/04/27 02:18:48;;;;;;;10.57;5.40;;;;;;;;;;4926115;29;20050;-74
2022/04/27 02:21:17;;;;;;;10.43;6.35;;;;;;;;;;4919981;29;20565;-72
2022/04/27 02:23:47;;;;;;;11.32;5.78;;;;;;;;;;4919386;29;20464;-73
2022/04/27 02:26:13;;;;;;;7.57;5.53;;;;;;;;;;4927248;29;20048;-72
2022/04/27 02:28:39;;;;;;;11.35;5.90;;;;;;;;;;4928090;29;20114;-73
2022/04/27 02:31:05;;;;;;;11.75;6.05;;;;;;;;;;4928312;29;20058;-72
2022/04/27 02:33:31;;;;;;;13.50;6.45;;;;;;;;;;4926496;29;20413;-75
2022/04/27 02:35:57;;;;;;;11.35;6.38;;;;;;;;;;4927189;29;20094;-74
2022/04/27 02:38:23;;;;;;;12.15;6.85;;;;;;;;;;4945040;29;20103;-72
2022/04/27 02:40:49;;;;;;;13.52;6.43;;;;;;;;;;4931563;29;20055;-73
2022/04/27 02:43:16;;;;;;;12.98;6.70;;;;;;;;;;4924729;29;20047;-74
2022/04/27 02:45:43;;;;;;;14.85;6.45;;;;;;;;;;4927378;29;20063;-75
2022/04/27 02:48:09;;;;;;;17.55;7.03;;;;;;;;;;4929031;29;20371;-73
2022/04/27 02:53:22;;;;;;;10.48;6.05;;;;;;;;;;4919421;29;20495;-74
2022/04/27 02:55:47;;;;;;;8.98;6.07;;;;;;;;;;4927643;29;20320;-73
2022/04/27 02:58:13;;;;;;;9.93;6.40;;;;;;;;;;4930508;29;20491;-75
2022/04/27 03:00:39;;;;;;;11.90;6.38;;;;;;;;;;4925676;29;20126;-73
2022/04/27 03:03:08;;;;;;;12.25;7.00;;;;;;;;;;4923214;29;20044;-72
2022/04/27 03:05:34;;;;;;;10.95;6.68;;;;;;;;;;4919077;29;20063;-75
2022/04/27 03:08:00;;;;;;;10.38;6.30;;;;;;;;;;4927964;29;20039;-74
2022/04/27 03:10:26;;;;;;;12.13;6.13;;;;;;;;;;4929220;29;20502;-71
2022/04/27 03:12:52;;;;;;;11.40;6.60;;;;;;;;;;4923789;29;20079;-71
2022/04/27 03:15:18;;;;;;;11.63;6.68;;;;;;;;;;4931278;29;20498;-73
2022/04/27 03:17:44;;;;;;;14.13;6.40;;;;;;;;;;4927546;29;20039;-74
2022/04/27 03:20:10;;;;;;;11.07;6.13;;;;;;;;;;4925263;29;20044;-75
2022/04/27 03:22:36;;;;;;;12.95;6.35;;;;;;;;;;4921585;29;20130;-74
2022/04/27 03:25:03;;;;;;;13.38;6.30;;;;;;;;;;4923856;29;20512;-72
2022/04/27 03:27:28;;;;;;;10.63;5.93;;;;;;;;;;4927003;29;20104;-74
2022/04/27 03:29:54;;;;;;;12.13;5.93;;;;;;;;;;4920336;29;20053;-73
2022/04/27 03:32:22;;;;;;;9.10;5.60;;;;;;;;;;4924618;29;20059;-73
2022/04/27 03:34:48;;;;;;;8.82;5.30;;;;;;;;;;4926141;29;20483;-72
2022/04/27 03:37:14;;;;;;;11.57;5.25;;;;;;;;;;4930524;29;20149;-75
2022/04/27 03:39:40;;;;;;;10.52;4.78;;;;;;;;;;4932925;29;20122;-73
2022/04/27 03:42:06;;;;;;;11.15;5.55;;;;;;;;;;4930875;29;20047;-73
2022/04/27 03:44:32;;;;;;;10.65;4.88;;;;;;;;;;4929331;29;20052;-73
2022/04/27 03:46:57;;;;;;;10.10;4.82;;;;;;;;;;4926967;29;20099;-74
2022/04/27 03:49:23;;;;;;;12.52;5.03;;;;;;;;;;4923120;29;20409;-75
2022/04/27 03:51:49;;;;;;;8.32;4.65;;;;;;;;;;4923426;29;20052;-73
2022/04/27 03:54:15;;;;;;;12.10;4.70;;;;;;;;;;4924969;29;20127;-72
2022/04/27 03:56:41;;;;;;;8.20;4.63;;;;;;;;;;4931721;29;20048;-72
2022/04/27 03:59:07;;;;;;;7.68;4.93;;;;;;;;;;4924974;29;20052;-73
2022/04/27 04:01:33;;;;;;;9.88;5.68;;;;;;;;;;4931335;29;20398;-74
2022/04/27 04:03:59;;;;;;;13.73;5.22;;;;;;;;;;4928194;29;20052;-73
2022/04/27 04:06:25;;;;;;;10.50;5.68;;;;;;;;;;4931071;29;20455;-75
2022/04/27 04:08:51;;;;;;;13.82;5.22;;;;;;;;;;4929026;29;20048;-72
2022/04/27 04:11:19;;;;;;;14.10;5.10;;;;;;;;;;4905470;29;20052;-75
2022/04/27 04:13:45;;;;;;;9.80;4.95;;;;;;;;;;4922725;29;20056;-74
2022/04/27 04:16:10;;;;;;;12.38;4.70;;;;;;;;;;4925237;29;20048;-73
2022/04/27 04:18:36;;;;;;;6.47;4.28;;;;;;;;;;4940291;28;20040;-75
2022/04/27 04:21:02;;;;;;;7.97;4.68;;;;;;;;;;4924667;29;20127;-73
2022/04/27 04:23:28;;;;;;;8.30;4.43;;;;;;;;;;4926973;29;20063;-74
2022/04/27 04:28:39;;;;;;;6.65;4.00;;;;;;;;;;4924452;29;20059;-74
2022/04/27 04:31:05;;;;;;;8.70;4.10;;;;;;;;;;4921523;29;20056;-74
2022/04/27 04:33:31;;;;;;;9.23;4.40;;;;;;;;;;4925011;29;20466;-75
2022/04/27 04:35:58;;;;;;;6.07;4.20;;;;;;;;;;4926742;29;20047;-74
2022/04/27 04:53:14;;;;;;;10.13;5.10;;;;;;;;;;5111258;27;20922;-66
2022/04/27 04:55:40;;;;;;;13.25;5.60;;;;;;;;;;5080210;28;20051;-67
2022/04/27 04:58:06;;;;;;;12.73;6.40;;;;;;;;;;5075903;28;20052;-67
2022/04/27 05:00:32;;;;;;;12.57;6.90;;;;;;;;;;5073682;28;20044;-67
2022/04/27 05:02:58;;;;;;;16.10;6.40;;;;;;;;;;5075892;28;20562;-67
2022/04/27 05:05:24;;;;;;;15.18;6.40;;;;;;;;;;5079087;28;20139;-66
2022/04/27 05:07:50;;;;;;;12.77;6.28;;;;;;;;;;5074836;28;20054;-66
2022/04/27 05:10:16;;;;;;;21.10;6.72;;;;;;;;;;5074295;28;20064;-67
2022/04/27 05:12:42;;;;;;;11.50;6.65;;;;;;;;;;5076947;28;20067;-67
2022/04/27 05:15:09;;;;;;;10.68;6.20;;;;;;;;;;5090964;28;20485;-67
2022/04/27 05:17:36;;;;;;;20.67;6.40;;;;;;;;;;5078942;28;20048;-66
2022/04/27 05:20:02;;;;;;;18.23;6.60;;;;;;;;;;5075865;28;20044;-67
2022/04/27 05:22:33;;;;;;;11.98;6.10;;;;;;;;;;5077836;28;20517;-67
2022/04/27 05:25:03;;;;;;;14.18;6.78;;;;;;;;;;5074643;28;20130;-67
2022/04/27 05:27:29;;;;;;;13.07;6.20;;;;;;;;;;5074304;28;20453;-69
2022/04/27 05:32:43;;;;;;;14.57;6.15;;;;;;;;;;5074431;28;20046;-65
2022/04/27 05:35:10;;;;;;;12.25;5.75;;;;;;;;;;5075768;28;20052;-64
2022/04/27 05:37:36;;;;;;;13.25;6.45;;;;;;;;;;5061841;28;20399;-65
2022/04/27 05:40:04;;;;;;;16.95;5.63;;;;;;;;;;5071450;28;20048;-67
2022/04/27 05:42:30;;;;;;;21.42;6.30;;;;;;;;;;5072768;28;20166;-64
2022/04/27 05:44:57;;;;;;;17.33;5.93;;;;;;;;;;5073974;28;20048;-66
2022/04/27 05:47:25;;;;;;;14.57;6.38;;;;;;;;;;5076068;28;20047;-68
2022/04/27 05:49:51;;;;;;;21.42;5.60;;;;;;;;;;5073395;28;20106;-66
2022/04/27 05:52:18;;;;;;;15.35;6.25;;;;;;;;;;5070788;28;20061;-71
2022/04/27 05:54:45;;;;;;;12.00;5.35;;;;;;;;;;5058593;28;20136;-71
2022/04/27 05:57:11;;;;;;;15.95;5.35;;;;;;;;;;5051020;28;20044;-72
2022/04/27 05:59:36;;;;;;;12.65;6.13;;;;;;;;;;5052718;28;20837;-73
2022/04/27 06:02:03;;;;;;;27.52;5.45;;;;;;;;;;5060377;28;20098;-71
2022/04/27 06:04:28;;;;;;;13.23;4.78;;;;;;;;;;5067862;28;20048;-70
2022/04/27 06:06:54;;;;;;;10.70;4.20;;;;;;;;;;5061621;28;20098;-70
2022/04/27 06:09:20;;;;;;;15.43;4.32;;;;;;;;;;5061598;28;20829;-74
2022/04/27 06:11:46;;;;;;;9.05;3.97;;;;;;;;;;5066637;28;20130;-72
2022/04/27 06:14:12;;;;;;;7.57;4.30;;;;;;;;;;5059462;28;20079;-66
2022/04/27 06:16:38;;;;;;;13.35;5.03;;;;;;;;;;5061884;28;20059;-66
2022/04/27 06:19:04;;;;;;;11.82;4.60;;;;;;;;;;5059041;28;20041;-67
2022/04/27 06:21:33;;;;;;;15.07;4.30;;;;;;;;;;5054545;28;20068;-69
2022/04/27 06:24:00;;;;;;;20.25;4.90;;;;;;;;;;5056675;28;20044;-67
2022/04/27 06:26:27;;;;;;;17.50;5.00;;;;;;;;;;5060352;28;20286;-67
2022/04/27 06:28:53;;;;;;;21.52;4.97;;;;;;;;;;5057307;28;20098;-67
2022/04/27 06:31:19;;;;;;;17.15;5.57;;;;;;;;;;5063341;28;20041;-68
2022/04/27 06:33:45;;;;;;;17.08;5.93;;;;;;;;;;5061171;28;20049;-65
2022/04/27 06:36:11;;;;;;;12.30;5.65;;;;;;;;;;5062705;28;20047;-64
2022/04/27 06:38:37;;;;;;;14.02;5.80;;;;;;;;;;5065263;28;20791;-64
2022/04/27 06:41:03;;;;;;;18.55;5.85;;;;;;;;;;5058904;28;20041;-64
2022/04/27 06:43:28;;;;;;;15.55;6.20;;;;;;;;;;5064899;28;20041;-65
2022/04/27 06:45:55;;;;;;;26.63;5.72;;;;;;;;;;5066696;28;20060;-65
2022/04/27 06:48:21;;;;;;;11.20;4.60;;;;;;;;;;5055149;28;20048;-66
2022/04/27 06:50:46;;;;;;;12.88;5.00;;;;;;;;;;5056087;28;20045;-71
2022/04/27 06:53:13;;;;;;;14.75;8.15;;;;;;;;;;5041647;28;20060;-66
2022/04/27 06:55:39;;;;;;;32.47;14.82;;;;;;;;;;5063646;28;20052;-66
2022/04/27 06:58:05;;;;;;;33.13;14.50;;;;;;;;;;5059554;28;20108;-66
2022/04/27 07:00:31;;;;;;;32.53;12.90;;;;;;;;;;5055627;28;20064;-65
2022/04/27 07:02:58;;;;;;;24.75;10.10;;;;;;;;;;5067133;28;20075;-66
2022/04/27 07:05:25;;;;;;;17.27;8.77;;;;;;;;;;5064361;28;20076;-66
2022/04/27 07:07:51;;;;;;;31.52;8.45;;;;;;;;;;5065138;28;20045;-65
2022/04/27 07:10:19;;;;;;;18.00;8.00;;;;;;;;;;5064006;28;20419;-65
2022/04/27 07:12:48;;;;;;;20.40;6.95;;;;;;;;;;5057266;28;20057;-66
2022/04/27 07:15:15;;;;;;;15.93;6.78;;;;;;;;;;5057931;28;20075;-66
2022/04/27 07:17:42;;;;;;;20.77;7.10;;;;;;;;;;5065199;28;20472;-67
2022/04/27 07:20:09;;;;;;;23.02;7.55;;;;;;;;;;5067680;28;20068;-67
2022/04/27 07:22:35;;;;;;;18.83;7.30;;;;;;;;;;5061476;28;20049;-66
2022/04/27 07:25:00;;;;;;;23.45;7.20;;;;;;;;;;5059916;28;20066;-67
2022/04/27 07:27:27;;;;;;;22.75;7.72;;;;;;;;;;5065648;28;20098;-65
2022/04/27 07:29:54;;;;;;;19.63;8.05;;;;;;;;;;5068398;28;20053;-65
2022/04/27 07:32:19;;;;;;;20.83;8.65;;;;;;;;;;5065805;28;20052;-66
2022/04/27 07:34:45;;;;;;;21.20;10.48;;;;;;;;;;5065773;28;20494;-66
2022/04/27 07:37:12;;;;;;;21.50;10.60;;;;;;;;;;5053792;28;20048;-65
2022/04/27 07:39:38;;;;;;;28.42;10.73;;;;;;;;;;5061544;28;20057;-65
2022/04/27 07:42:04;;;;;;;30.30;10.77;;;;;;;;;;5052351;28;20037;-65
2022/04/27 07:44:30;;;;;;;23.33;9.75;;;;;;;;;;5052139;28;20079;-66
2022/04/27 07:46:56;;;;;;;26.15;7.85;;;;;;;;;;5048023;28;20079;-68
2022/04/27 07:49:22;;;;;;;24.50;7.68;;;;;;;;;;5058946;28;20041;-68
2022/04/27 07:51:50;;;;;;;18.98;7.38;;;;;;;;;;5064827;28;20092;-64
2022/04/27 07:54:16;;;;;;;17.45;7.85;;;;;;;;;;5066996;28;20085;-71
2022/04/27 07:56:42;;;;;;;17.17;7.88;;;;;;;;;;5059725;28;20049;-66
2022/04/27 07:59:08;;;;;;;26.80;8.60;;;;;;;;;;5065650;28;20044;-65
2022/04/27 08:01:34;;;;;;;14.52;7.38;;;;;;;;;;5059226;28;20045;-67
2022/04/27 08:04:00;;;;;;;23.45;9.50;;;;;;;;;;5057927;28;20048;-64
2022/04/27 08:06:26;;;;;;;18.23;7.80;;;;;;;;;;5057574;28;20063;-64
2022/04/27 08:08:52;;;;;;;14.30;7.20;;;;;;;;;;5067302;28;20044;-68
2022/04/27 08:11:18;;;;;;;13.95;6.50;;;;;;;;;;5063305;28;20052;-68
2022/04/27 08:13:45;;;;;;;15.63;6.05;;;;;;;;;;5061302;28;20045;-69
2022/04/27 08:16:12;;;;;;;20.30;6.25;;;;;;;;;;5061158;28;20069;-65
2022/04/27 08:18:40;;;;;;;19.23;5.50;;;;;;;;;;5063105;28;20041;-66
2022/04/27 08:24:30;;;;;;;16.15;5.45;;;;;;;;;;5044657;28;20102;-67
2022/04/27 08:26:56;;;;;;;16.88;5.85;;;;;;;;;;5048307;28;20109;-69
2022/04/27 08:29:22;;;;;;;10.98;5.60;;;;;;;;;;5045675;28;20136;-67
2022/04/27 08:31:48;;;;;;;13.45;5.28;;;;;;;;;;5047480;28;20051;-65
2022/04/27 08:34:14;;;;;;;13.13;5.28;;;;;;;;;;5043433;28;20041;-66
2022/04/27 08:36:40;;;;;;;12.18;5.88;;;;;;;;;;5038071;28;20115;-66
2022/04/27 08:39:06;;;;;;;13.38;5.28;;;;;;;;;;5033562;28;20120;-65
2022/04/27 08:41:32;;;;;;;19.55;5.90;;;;;;;;;;5035011;28;20055;-67
2022/04/27 08:43:58;;;;;;;13.43;4.63;;;;;;;;;;5035874;28;20146;-66
2022/04/27 08:46:24;;;;;;;10.02;5.18;;;;;;;;;;5036722;28;20563;-67
2022/04/27 08:48:50;;;;;;;12.82;5.30;;;;;;;;;;5043317;28;20514;-65
2022/04/27 08:51:17;;;;;;;16.80;5.10;;;;;;;;;;5043375;28;20069;-65
2022/04/27 08:53:43;;;;;;;13.10;5.05;;;;;;;;;;5045326;28;20421;-67
2022/04/27 08:56:10;;;;;;;13.85;4.43;;;;;;;;;;5046198;28;20037;-68
2022/04/27 08:58:36;;;;;;;11.05;5.10;;;;;;;;;;5039271;28;20084;-67
2022/04/27 09:01:03;;;;;;;11.48;4.70;;;;;;;;;;5037399;28;20096;-68
2022/04/27 09:03:34;;;;;;;9.50;4.78;;;;;;;;;;5045487;28;20488;-67
2022/04/27 09:06:01;;;;;;;16.48;5.22;;;;;;;;;;5041258;28;20083;-68
2022/04/27 09:08:37;;;;;;;11.18;4.50;;;;;;;;;;5040850;28;20041;-67
2022/04/27 09:11:12;;;;;;;8.73;4.03;;;;;;;;;;5040932;28;20558;-69
2022/04/27 09:13:39;;;;;;;12.23;4.78;;;;;;;;;;5044229;28;20484;-66
2022/04/27 09:16:07;;;;;;;15.98;4.82;;;;;;;;;;5046575;28;20059;-66
2022/04/27 09:22:03;;;;;;;16.77;4.68;;;;;;;;;;5036971;28;20124;-66
2022/04/27 09:24:46;;;;;;;13.32;4.82;;;;;;;;;;5036782;28;20049;-69
2022/04/27 09:27:16;;;;;;;12.48;5.20;;;;;;;;;;5042635;28;20060;-69
2022/04/27 09:29:42;;;;;;;9.13;5.10;;;;;;;;;;5047989;28;20446;-69
2022/04/27 09:32:14;;;;;;;15.60;5.72;;;;;;;;;;5048342;28;20045;-70
2022/04/27 09:34:48;;;;;;;15.77;5.32;;;;;;;;;;5048405;28;20120;-71
2022/04/27 09:37:21;;;;;;;12.02;5.47;;;;;;;;;;5060888;28;20087;-71
2022/04/27 09:40:06;;;;;;;13.15;5.78;;;;;;;;;;5050148;28;20454;-70
2022/04/27 09:42:37;;;;;;;13.70;5.20;;;;;;;;;;5042754;28;20541;-68
2022/04/27 09:45:19;;;;;;;20.73;5.38;;;;;;;;;;5046244;28;20113;-71
2022/04/27 09:47:53;;;;;;;11.82;5.07;;;;;;;;;;5051200;28;20060;-69
2022/04/27 09:50:19;;;;;;;9.27;4.90;;;;;;;;;;5040534;28;20037;-71
2022/04/27 09:52:47;;;;;;;14.82;4.43;;;;;;;;;;5037745;28;20412;-69
2022/04/27 09:55:13;;;;;;;9.18;4.72;;;;;;;;;;5044128;28;20135;-70
2022/04/27 09:57:40;;;;;;;14.65;5.03;;;;;;;;;;5046395;28;20059;-69
2022/04/27 10:00:08;;;;;;;11.20;4.60;;;;;;;;;;5043231;28;20222;-71
2022/04/27 10:02:35;;;;;;;10.88;4.05;;;;;;;;;;5043971;28;20049;-70
2022/04/27 10:05:01;;;;;;;10.55;3.50;;;;;;;;;;5046757;28;20132;-70
2022/04/27 10:07:32;;;;;;;11.70;3.53;;;;;;;;;;5040483;28;20041;-69
2022/04/27 10:09:59;;;;;;;8.25;3.63;;;;;;;;;;5047324;28;20377;-76
2022/04/27 10:12:25;;;;;;;7.55;3.50;;;;;;;;;;5038244;28;20053;-77
2022/04/27 10:14:51;;;;;;;14.15;3.88;;;;;;;;;;5054724;28;20064;-77
2022/04/27 10:17:17;;;;;;;13.25;4.60;;;;;;;;;;5049739;28;20570;-70
2022/04/27 10:19:45;;;;;;;13.75;4.25;;;;;;;;;;5048144;28;20128;-70
2022/04/27 10:22:31;;;;;;;12.40;3.78;;;;;;;;;;5045060;28;20051;-70
2022/04/27 10:25:04;;;;;;;14.90;3.88;;;;;;;;;;5046713;28;20033;-72
2022/04/27 10:27:33;;;;;;;12.32;4.55;;;;;;;;;;5044493;28;20038;-72
2022/04/27 10:30:09;;;;;;;12.27;3.53;;;;;;;;;;5045863;28;20053;-70
2022/04/27 10:32:42;;;;;;;11.82;3.35;;;;;;;;;;5049188;28;20056;-69
2022/04/27 10:35:19;;;;;;;10.70;3.38;;;;;;;;;;5049420;28;20115;-69
2022/04/27 10:37:58;;;;;;;9.68;2.90;;;;;;;;;;5048687;28;20084;-70
2022/04/27 10:40:33;;;;;;;7.45;3.30;;;;;;;;;;5039494;28;20124;-69
2022/04/27 10:43:13;;;;;;;7.93;3.50;;;;;;;;;;5047005;28;20094;-71
2022/04/27 10:45:45;;;;;;;9.70;4.13;;;;;;;;;;5047438;28;20051;-71
2022/04/27 10:48:27;;;;;;;11.23;3.55;;;;;;;;;;5043671;28;20057;-71
2022/04/27 10:50:54;;;;;;;14.73;3.53;;;;;;;;;;5049028;28;20127;-69
2022/04/27 10:53:24;;;;;;;8.15;3.60;;;;;;;;;;5032307;28;20096;-70
2022/04/27 10:55:53;;;;;;;8.38;3.85;;;;;;;;;;5037153;28;20460;-70
2022/04/27 10:58:34;;;;;;;8.07;3.50;;;;;;;;;;5036881;28;20084;-70
2022/04/27 11:01:03;;;;;;;15.25;4.60;;;;;;;;;;5048944;28;20131;-72
2022/04/27 11:03:30;;;;;;;14.40;4.80;;;;;;;;;;5040620;28;20120;-70
2022/04/27 11:06:00;;;;;;;11.23;4.63;;;;;;;;;;5043016;28;20530;-70
2022/04/27 11:08:32;;;;;;;11.25;4.75;;;;;;;;;;5043402;28;20068;-69
2022/04/27 11:11:05;;;;;;;12.18;6.00;;;;;;;;;;5045287;28;20065;-72
2022/04/27 11:13:32;;;;;;;11.77;5.53;;;;;;;;;;5047231;28;20052;-70
2022/04/27 11:16:08;;;;;;;11.48;5.25;;;;;;;;;;5041926;28;20128;-68
2022/04/27 11:18:49;;;;;;;13.95;6.32;;;;;;;;;;5046424;28;20048;-72
2022/04/27 11:21:20;;;;;;;15.13;6.55;;;;;;;;;;5048875;28;20522;-71
2022/04/27 11:23:46;;;;;;;15.75;6.90;;;;;;;;;;5048670;28;20340;-70
2022/04/27 11:26:15;;;;;;;13.52;7.10;;;;;;;;;;5031620;28;20121;-70
2022/04/27 11:28:42;;;;;;;17.40;7.60;;;;;;;;;;5045046;28;20132;-69
2022/04/27 11:31:13;;;;;;;16.75;7.38;;;;;;;;;;5043159;28;20345;-69
2022/04/27 11:33:40;;;;;;;13.70;7.47;;;;;;;;;;5042530;28;20530;-70
2022/04/27 11:36:24;;;;;;;17.77;7.78;;;;;;;;;;5047318;28;20033;-71
2022/04/27 11:38:51;;;;;;;16.15;7.38;;;;;;;;;;5044829;28;20174;-70
2022/04/27 11:41:19;;;;;;;18.98;7.15;;;;;;;;;;5047610;28;20146;-68
2022/04/27 11:43:47;;;;;;;15.98;7.32;;;;;;;;;;5047740;28;20040;-75
2022/04/27 11:46:13;;;;;;;16.25;7.20;;;;;;;;;;5038487;28;20561;-70
2022/04/27 11:48:39;;;;;;;16.88;6.65;;;;;;;;;;5048464;28;20182;-71
2022/04/27 11:51:09;;;;;;;14.82;7.55;;;;;;;;;;5042124;28;20060;-72
2022/04/27 11:53:49;;;;;;;18.15;7.82;;;;;;;;;;5040680;28;20045;-68
2022/04/27 11:56:16;;;;;;;18.65;6.40;;;;;;;;;;5045957;28;20052;-70
2022/04/27 11:58:46;;;;;;;13.40;6.10;;;;;;;;;;5046708;28;20056;-69
2022/04/27 12:01:23;;;;;;;8.70;5.22;;;;;;;;;;5041240;28;20052;-71
2022/04/27 12:03:49;;;;;;;10.55;6.05;;;;;;;;;;5043405;28;20131;-71
2022/04/27 12:06:22;;;;;;;14.55;5.68;;;;;;;;;;5040158;28;20045;-69
2022/04/27 12:08:48;;;;;;;9.90;5.47;;;;;;;;;;5039974;28;20124;-71
2022/04/27 12:11:23;;;;;;;11.77;5.60;;;;;;;;;;5044746;28;20052;-71
2022/04/27 12:13:51;;;;;;;14.70;6.20;;;;;;;;;;5041655;28;20041;-72
2022/04/27 12:16:18;;;;;;;10.63;5.45;;;;;;;;;;5044575;28;20053;-73
2022/04/27 12:18:54;;;;;;;12.95;6.07;;;;;;;;;;5048376;28;20044;-72
2022/04/27 12:21:24;;;;;;;11.10;5.90;;;;;;;;;;5045245;28;20049;-72
2022/04/27 12:23:51;;;;;;;11.85;5.80;;;;;;;;;;5041884;28;20064;-77
2022/04/27 12:26:18;;;;;;;18.83;8.63;;;;;;;;;;5039141;28;20048;-70
2022/04/27 12:28:47;;;;;;;16.70;6.95;;;;;;;;;;5046764;28;20120;-71
2022/04/27 12:31:15;;;;;;;17.40;7.20;;;;;;;;;;5046522;28;20037;-71
2022/04/27 12:33:44;;;;;;;12.30;6.20;;;;;;;;;;5048646;28;20466;-70
2022/04/27 12:39:11;;;;;;;11.35;7.28;;;;;;;;;;5040705;28;20041;-70
2022/04/27 12:42:07;;;;;;;15.35;6.88;;;;;;;;;;5040497;28;20147;-69
2022/04/27 12:44:41;;;;;;;12.65;6.53;;;;;;;;;;5039161;28;20551;-71
2022/04/27 12:47:12;;;;;;;13.10;7.25;;;;;;;;;;5044784;28;20444;-70
2022/04/27 12:49:44;;;;;;;11.90;7.40;;;;;;;;;;5047179;28;20048;-72
2022/04/27 12:52:34;;;;;;;12.55;7.63;;;;;;;;;;5048214;28;20131;-71
2022/04/27 12:55:09;;;;;;;18.48;7.90;;;;;;;;;;5042486;28;20044;-71
2022/04/27 12:58:04;;;;;;;14.05;7.32;;;;;;;;;;5043212;28;20488;-71
2022/04/27 13:00:38;;;;;;;12.68;5.75;;;;;;;;;;5038898;28;20110;-71
2022/04/27 13:03:08;;;;;;;13.45;4.97;;;;;;;;;;5037164;28;20463;-71
2022/04/27 13:05:40;;;;;;;8.38;4.00;;;;;;;;;;5052148;28;20056;-70
2022/04/27 13:08:11;;;;;;;7.68;4.38;;;;;;;;;;5052982;28;20037;-70
2022/04/27 13:13:23;;;;;;;11.07;5.65;;;;;;;;;;5049595;28;20411;-70
2022/04/27 13:15:49;;;;;;;10.30;5.50;;;;;;;;;;5042343;28;20047;-73
2022/04/27 13:18:16;;;;;;;12.68;5.95;;;;;;;;;;5046756;28;20045;-70
2022/04/27 13:20:43;;;;;;;12.82;6.72;;;;;;;;;;5043796;28;20060;-71
2022/04/27 13:23:10;;;;;;;12.60;7.28;;;;;;;;;;5042399;28;20103;-71
2022/04/27 13:25:36;;;;;;;11.38;6.07;;;;;;;;;;5048583;28;20480;-71
2022/04/27 13:28:03;;;;;;;12.25;6.10;;;;;;;;;;5037592;28;20743;-72
2022/04/27 13:30:29;;;;;;;9.15;5.45;;;;;;;;;;5035735;28;20049;-69
2022/04/27 13:32:56;;;;;;;11.88;4.38;;;;;;;;;;5039122;28;20392;-70
2022/04/27 13:35:23;;;;;;;10.38;4.90;;;;;;;;;;5035456;28;20049;-72
2022/04/27 13:37:49;;;;;;;11.70;5.25;;;;;;;;;;5027965;28;20333;-70
2022/04/27 13:40:15;;;;;;;7.05;4.07;;;;;;;;;;5026645;28;21184;-69
2022/04/27 13:42:42;;;;;;;9.85;4.00;;;;;;;;;;5027762;28;20053;-71
2022/04/27 13:45:10;;;;;;;7.30;3.10;;;;;;;;;;5031497;28;20089;-70
2022/04/27 13:47:37;;;;;;;10.60;3.45;;;;;;;;;;5032020;28;20408;-71
2022/04/27 13:50:05;;;;;;;10.35;3.05;;;;;;;;;;5039534;28;20048;-71
2022/04/27 13:52:32;;;;;;;12.90;3.00;;;;;;;;;;5030578;28;20064;-73
2022/04/27 13:54:59;;;;;;;6.47;2.72;;;;;;;;;;5031409;28;20053;-72
2022/04/27 13:57:26;;;;;;;8.05;3.20;;;;;;;;;;5024560;28;20491;-74
2022/04/27 13:59:52;;;;;;;8.65;3.50;;;;;;;;;;5003278;28;20045;-70
2022/04/27 14:02:18;;;;;;;8.68;3.22;;;;;;;;;;5023007;28;20060;-71
2022/04/27 14:04:44;;;;;;;6.22;2.80;;;;;;;;;;5021293;28;20053;-72
2022/04/27 14:07:10;;;;;;;8.30;3.25;;;;;;;;;;5024712;28;20056;-71
2022/04/27 14:09:36;;;;;;;12.02;3.58;;;;;;;;;;5024172;28;20076;-72
2022/04/27 14:14:48;;;;;;;4.88;2.53;;;;;;;;;;5030006;28;20514;-71
2022/04/27 14:19:59;;;;;;;6.65;2.70;;;;;;;;;;5024747;28;20049;-72
2022/04/27 14:22:26;;;;;;;6.07;2.72;;;;;;;;;;5029011;28;20128;-72
2022/04/27 14:24:53;;;;;;;7.68;2.92;;;;;;;;;;5029910;28;20582;-69
2022/04/27 14:27:19;;;;;;;7.65;2.90;;;;;;;;;;5027999;28;20284;-68
2022/04/27 14:29:45;;;;;;;8.15;2.88;;;;;;;;;;5025517;28;20053;-65
2022/04/27 14:32:11;;;;;;;6.90;2.88;;;;;;;;;;5030016;28;20508;-65
2022/04/27 14:34:37;;;;;;;8.40;3.53;;;;;;;;;;5027632;28;20542;-68
2022/04/27 14:37:04;;;;;;;7.18;3.55;;;;;;;;;;5026756;28;20049;-69
2022/04/27 14:39:30;;;;;;;7.47;3.45;;;;;;;;;;5024895;28;20102;-68
2022/04/27 14:41:56;;;;;;;8.05;3.53;;;;;;;;;;5024699;28;20049;-66
2022/04/27 14:44:23;;;;;;;8.68;3.28;;;;;;;;;;5027844;28;20052;-68
2022/04/27 14:46:49;;;;;;;7.40;3.38;;;;;;;;;;5023463;28;20504;-66
2022/04/27 14:49:16;;;;;;;8.88;3.25;;;;;;;;;;5025916;28;20053;-67
2022/04/27 14:51:44;;;;;;;10.18;3.20;;;;;;;;;;5027852;28;20387;-68
2022/04/27 14:54:11;;;;;;;5.63;2.72;;;;;;;;;;5027571;28;20102;-67
2022/04/27 14:56:38;;;;;;;7.18;2.80;;;;;;;;;;5029907;28;20056;-68
2022/04/27 14:59:04;;;;;;;9.93;3.65;;;;;;;;;;5025550;28;20068;-66
2022/04/27 15:01:30;;;;;;;7.97;4.10;;;;;;;;;;5029041;28;20045;-67
2022/04/27 15:03:59;;;;;;;12.02;3.50;;;;;;;;;;5029491;28;20041;-68
2022/04/27 15:06:27;;;;;;;7.60;2.92;;;;;;;;;;5026942;28;20053;-68
2022/04/27 15:08:54;;;;;;;11.80;2.83;;;;;;;;;;5031855;28;20056;-66
2022/04/27 15:11:20;;;;;;;8.60;3.30;;;;;;;;;;5029902;28;20088;-66
2022/04/27 15:13:46;;;;;;;11.00;2.78;;;;;;;;;;5031354;28;20187;-65
2022/04/27 15:16:12;;;;;;;7.60;3.40;;;;;;;;;;5031717;28;20116;-67
2022/04/27 15:18:38;;;;;;;11.18;3.17;;;;;;;;;;5032500;28;20053;-67
2022/04/27 15:24:09;;;;;;;7.43;3.00;;;;;;;;;;5038794;28;20182;-67